Guaruja, Brazil
Current Conditions -  °F | °C
As of 6:00 PM on Monday 24 Nov 2014 (Local Time) from SBST Reporting Station
Broken Clouds Broken Clouds  
Wind Chill: 75°   Ceiling: 1800
Heat Index: 75°   Visibility: 6mi
Dew Point: 70°   Wind: 9mph
Humidity: 83%   Direction: 130°SE
Pressure: 29.88"   Gusts: NA
Location:  24°S, 46.27°W
Report Text: SBST 242000Z 13008KT 9999 BKN018 24/21 Q1012
Loading
Personal Weather Stations






























Interactive Weather Map New forecast layout! Learn more

10-Day Weather Forecast

Advertisements
Track Severe Weather on mobile